• Join FlightAware (Why Join?)
  • Login
  • US Flag 
11:01AM EDT


 

Airport Tracker/Info


-or-


 

Live Flight TrackerFlight Track Log ✈ SKW4970 ✈ 06-May-2013 ✈ KDAL - KIAH

Flight Track Log - Related Links

Times and Time Zones

All times are in EDT time to prevent confusion due to time zone crossing. See the SKW4970 flight status page for this flight to view local times or setup timezone preferences in your user account.

Time Position Orientation Groundspeed Altitude Reporting Facility
EDT Latitude Longitude Course Direction KTS MPH feet Rate Location/Type
04:59PM 32.8667 -96.8500 159° South 162 186 1,200  Level Dallas / Fort Worth TRACON
05:00PM 32.8833 -96.8833 301° West 174 200 3,600 2,700 Climbing Dallas / Fort Worth TRACON
05:01PM 32.9000 -96.9500 287° West 243 280 6,100 2,700 Climbing Dallas / Fort Worth TRACON
05:02PM 32.8167 -96.9500 180° South 295 339 9,100 2,820 Climbing Dallas / Fort Worth TRACON
05:03PM 32.6308 -96.9392 161° South  Level FlightAware Approximate
05:04PM 32.5324 -96.9052 164° South  Level FlightAware Approximate
05:04PM 32.6592 -96.9125 169° South 333 383 14,100  Level Fort Worth Center
05:05PM 32.4348 -96.8688 159° South  Level FlightAware Approximate
05:06PM 32.4553 -96.8608 168° South 369 425 19,500  Level Houston Center
05:07PM 32.3603 -96.8331 166° South 375 432 21,400 1,860 Climbing Fort Worth Center
05:09PM 32.1225 -96.7531 164° South 430 495 25,300 1,920 Climbing Houston Center
05:10PM 31.9911 -96.7025 162° South 422 486 27,900 1,740 Climbing Houston Center
05:11PM 31.8778 -96.6600 162° South 424 488 29,000 480 Climbing Houston Center
05:12PM 31.7550 -96.6103 161° South 460 529 29,000 -60 Level Houston Center
05:14PM 31.6421 -96.5635 161° South  Level FlightAware Approximate
05:14PM 31.5058 -96.5075 161° South 468 539 28,900  Level Houston Center
05:15PM 31.3931 -96.4381 152° Southeast 454 522 27,800 -1,500 Descending Houston Center
05:17PM 31.2860 -96.4193 139° Southeast  Level FlightAware Approximate
05:18PM 31.1439 -96.2839 139° Southeast 462 532 24,300  Level Houston Center
05:19PM 31.0331 -96.2169 153° Southeast 447 514 21,500 -2,400 Descending Houston Center
05:21PM 30.8712 -96.0803 139° Southeast  Level Estimated
05:23PM 30.6267 -95.9678 139° Southeast 402 463 12,000  Level Houston Center
05:23PM 30.5706 -95.9342 153° Southeast 406 467 12,000  Level Houston Center
05:24PM 30.5258 -95.9067 152° Southeast 408 470 12,000  Level Houston Center
05:24PM 30.4708 -95.8731 152° Southeast 337 388 12,000  Level Houston Center
05:25PM 30.4003 -95.8086 142° Southeast 325 374 12,000  Level Houston Center
05:26PM 30.3769 -95.7836 137° Southeast 322 371 12,000  Level Houston Center
05:26PM 30.3331 -95.7389 139° Southeast 325 374 12,000 -240 Level Houston Center
05:27PM 30.2978 -95.6992 136° Southeast 322 371 11,800 -1,020 Descending Houston Center
05:27PM 30.2683 -95.6692 139° Southeast 314 361 11,000 -1,860 Descending Houston Center
05:28PM 30.2918 -95.6918 139° Southeast  Level FlightAware Approximate
05:28PM 30.2333 -95.6331 138° Southeast 315 362 9,900  Level Houston Center
05:28PM 30.2011 -95.5997 138° Southeast 305 351 9,000 -1,740 Descending Houston Center
05:30PM 30.1101 -95.5101 139° Southeast  Level FlightAware Approximate
05:30PM 30.1108 -95.5044 139° Southeast 296 341 6,400  Level Houston Center
05:30PM 30.1058 -95.4517 96° East 275 316 6,000 -240 Descending Houston Center
05:32PM 30.0224 -95.3758 131° Southeast  Level Estimated
05:32PM 30.1053 -95.3231 131° Southeast 283 326 6,000  Level Houston Center
05:32PM 30.1056 -95.2633 90° East 279 321 5,900 -1,080 Descending Houston Center
05:33PM 30.1050 -95.2181 91° East 277 319 4,900 -1,380 Descending Houston Center
05:34PM 30.0850 -95.1414 107° East 261 300 3,700 -1,140 Descending Houston Center
05:35PM 30.0544 -95.1417 180° South 241 277 3,300 -720 Descending Houston Center
05:35PM 30.0353 -95.1717 234° Southwest 237 273 3,000 -900 Descending Houston Center
05:36PM 30.0167 -95.2092 240° Southwest 215 247 2,300 -1,260 Descending Houston Center
05:36PM 30.0072 -95.2306 243° Southwest 223 257 1,700 -1,020 Descending Houston Center
05:37PM 29.9958 -95.2575 244° Southwest 174 200 1,400 -780 Descending Houston Center
05:38PM 29.9936 -95.3036 267° West 135 155 600 -660 Descending Houston Center
05:38PM 29.9944 -95.3231 273° West 155 178 400 -360 Descending Houston Center